sensor_id;sensor_type;location;lat;lon;timestamp;P1;durP1;ratioP1;P2;durP2;ratioP2
61338;SDS011;47213;52.362;4.606;2024-03-08T00:09:48;31.50;;;16.60;;
61338;SDS011;47213;52.362;4.606;2024-03-08T00:19:48;28.20;;;15.70;;
61338;SDS011;47213;52.362;4.606;2024-03-08T00:29:47;28.90;;;15.50;;
61338;SDS011;47213;52.362;4.606;2024-03-08T00:39:47;27.70;;;15.10;;
61338;SDS011;47213;52.362;4.606;2024-03-08T00:49:47;27.50;;;15.80;;
61338;SDS011;47213;52.362;4.606;2024-03-08T00:59:47;27.20;;;15.60;;
61338;SDS011;47213;52.362;4.606;2024-03-08T01:09:46;30.60;;;16.50;;
61338;SDS011;47213;52.362;4.606;2024-03-08T01:19:46;26.70;;;15.20;;
61338;SDS011;47213;52.362;4.606;2024-03-08T01:29:46;25.30;;;14.90;;
61338;SDS011;47213;52.362;4.606;2024-03-08T01:39:45;27.50;;;15.50;;
61338;SDS011;47213;52.362;4.606;2024-03-08T01:49:45;26.10;;;14.80;;
61338;SDS011;47213;52.362;4.606;2024-03-08T01:59:44;28.70;;;16.10;;
61338;SDS011;47213;52.362;4.606;2024-03-08T02:09:44;31.30;;;15.80;;
61338;SDS011;47213;52.362;4.606;2024-03-08T02:19:44;27.80;;;16.00;;
61338;SDS011;47213;52.362;4.606;2024-03-08T02:29:44;27.90;;;16.30;;
61338;SDS011;47213;52.362;4.606;2024-03-08T02:39:43;29.20;;;15.90;;
61338;SDS011;47213;52.362;4.606;2024-03-08T02:49:42;26.10;;;16.60;;
61338;SDS011;47213;52.362;4.606;2024-03-08T03:09:42;30.70;;;16.80;;
61338;SDS011;47213;52.362;4.606;2024-03-08T03:29:41;29.40;;;17.30;;
61338;SDS011;47213;52.362;4.606;2024-03-08T03:39:40;28.90;;;17.40;;
61338;SDS011;47213;52.362;4.606;2024-03-08T03:49:41;30.00;;;16.90;;
61338;SDS011;47213;52.362;4.606;2024-03-08T03:59:40;29.60;;;17.20;;
61338;SDS011;47213;52.362;4.606;2024-03-08T04:09:39;28.00;;;17.00;;
61338;SDS011;47213;52.362;4.606;2024-03-08T04:19:38;27.70;;;17.50;;
61338;SDS011;47213;52.362;4.606;2024-03-08T04:39:37;29.50;;;17.40;;
61338;SDS011;47213;52.362;4.606;2024-03-08T04:49:37;27.70;;;17.50;;
61338;SDS011;47213;52.362;4.606;2024-03-08T04:59:36;29.40;;;17.20;;
61338;SDS011;47213;52.362;4.606;2024-03-08T05:09:35;30.10;;;16.90;;
61338;SDS011;47213;52.362;4.606;2024-03-08T05:29:34;31.00;;;17.30;;
61338;SDS011;47213;52.362;4.606;2024-03-08T05:39:34;30.00;;;16.80;;
61338;SDS011;47213;52.362;4.606;2024-03-08T05:49:48;31.30;;;17.50;;
61338;SDS011;47213;52.362;4.606;2024-03-08T05:59:33;31.00;;;17.20;;
61338;SDS011;47213;52.362;4.606;2024-03-08T06:09:32;32.20;;;16.80;;
61338;SDS011;47213;52.362;4.606;2024-03-08T06:19:32;28.10;;;16.60;;
61338;SDS011;47213;52.362;4.606;2024-03-08T06:29:31;31.30;;;17.20;;
61338;SDS011;47213;52.362;4.606;2024-03-08T06:39:31;30.70;;;18.30;;
61338;SDS011;47213;52.362;4.606;2024-03-08T06:49:30;29.70;;;17.00;;
61338;SDS011;47213;52.362;4.606;2024-03-08T06:59:32;34.20;;;18.50;;
61338;SDS011;47213;52.362;4.606;2024-03-08T07:29:28;31.70;;;17.60;;
61338;SDS011;47213;52.362;4.606;2024-03-08T07:39:28;32.00;;;18.00;;
61338;SDS011;47213;52.362;4.606;2024-03-08T07:49:28;30.20;;;18.30;;
61338;SDS011;47213;52.362;4.606;2024-03-08T07:59:27;33.20;;;18.70;;
61338;SDS011;47213;52.362;4.606;2024-03-08T08:09:27;34.20;;;19.30;;
61338;SDS011;47213;52.362;4.606;2024-03-08T08:19:27;29.10;;;17.60;;
61338;SDS011;47213;52.362;4.606;2024-03-08T08:29:26;29.10;;;19.30;;
61338;SDS011;47213;52.362;4.606;2024-03-08T08:49:26;31.10;;;19.80;;
61338;SDS011;47213;52.362;4.606;2024-03-08T08:59:26;31.70;;;20.00;;
61338;SDS011;47213;52.362;4.606;2024-03-08T09:09:25;32.30;;;20.50;;
61338;SDS011;47213;52.362;4.606;2024-03-08T09:19:25;31.10;;;20.80;;
61338;SDS011;47213;52.362;4.606;2024-03-08T09:29:25;31.20;;;20.60;;
61338;SDS011;47213;52.362;4.606;2024-03-08T09:39:25;31.00;;;20.80;;
61338;SDS011;47213;52.362;4.606;2024-03-08T09:49:25;34.90;;;22.70;;
61338;SDS011;47213;52.362;4.606;2024-03-08T09:59:25;32.00;;;22.00;;
61338;SDS011;47213;52.362;4.606;2024-03-08T10:09:25;32.20;;;23.10;;
61338;SDS011;47213;52.362;4.606;2024-03-08T10:19:25;30.70;;;21.30;;
61338;SDS011;47213;52.362;4.606;2024-03-08T10:29:25;32.50;;;22.20;;
61338;SDS011;47213;52.362;4.606;2024-03-08T10:39:27;29.70;;;21.30;;
61338;SDS011;47213;52.362;4.606;2024-03-08T10:49:31;30.40;;;21.80;;
61338;SDS011;47213;52.362;4.606;2024-03-08T10:59:26;28.20;;;20.20;;
61338;SDS011;47213;52.362;4.606;2024-03-08T11:39:29;21.50;;;14.50;;
61338;SDS011;47213;52.362;4.606;2024-03-08T11:49:32;21.30;;;13.80;;
61338;SDS011;47213;52.362;4.606;2024-03-08T11:59:34;20.70;;;14.60;;
61338;SDS011;47213;52.362;4.606;2024-03-08T12:09:37;18.40;;;14.00;;
61338;SDS011;47213;52.362;4.606;2024-03-08T12:19:39;20.10;;;14.40;;
61338;SDS011;47213;52.362;4.606;2024-03-08T12:29:42;17.80;;;13.50;;
61338;SDS011;47213;52.362;4.606;2024-03-08T14:09:54;20.10;;;13.40;;
61338;SDS011;47213;52.362;4.606;2024-03-08T14:19:55;18.90;;;13.50;;
61338;SDS011;47213;52.362;4.606;2024-03-08T14:29:55;20.70;;;14.30;;
61338;SDS011;47213;52.362;4.606;2024-03-08T14:39:56;21.70;;;14.80;;
61338;SDS011;47213;52.362;4.606;2024-03-08T14:49:57;20.80;;;15.40;;
61338;SDS011;47213;52.362;4.606;2024-03-08T14:59:57;21.60;;;16.30;;
61338;SDS011;47213;52.362;4.606;2024-03-08T15:09:58;21.50;;;14.80;;
61338;SDS011;47213;52.362;4.606;2024-03-08T15:19:58;22.40;;;16.60;;
61338;SDS011;47213;52.362;4.606;2024-03-08T15:29:59;22.30;;;14.70;;
61338;SDS011;47213;52.362;4.606;2024-03-08T15:40:00;23.60;;;15.80;;
61338;SDS011;47213;52.362;4.606;2024-03-08T15:50:00;22.50;;;15.40;;
61338;SDS011;47213;52.362;4.606;2024-03-08T16:00:02;23.30;;;17.70;;
61338;SDS011;47213;52.362;4.606;2024-03-08T16:10:02;21.70;;;15.00;;
61338;SDS011;47213;52.362;4.606;2024-03-08T16:20:05;21.30;;;15.90;;
61338;SDS011;47213;52.362;4.606;2024-03-08T16:30:03;21.90;;;16.10;;
61338;SDS011;47213;52.362;4.606;2024-03-08T16:40:04;22.30;;;16.40;;
61338;SDS011;47213;52.362;4.606;2024-03-08T16:50:04;22.20;;;15.10;;
61338;SDS011;47213;52.362;4.606;2024-03-08T17:00:04;21.30;;;14.60;;
61338;SDS011;47213;52.362;4.606;2024-03-08T17:10:04;20.80;;;14.40;;
61338;SDS011;47213;52.362;4.606;2024-03-08T17:20:05;20.90;;;14.80;;
61338;SDS011;47213;52.362;4.606;2024-03-08T17:30:05;21.70;;;14.60;;
61338;SDS011;47213;52.362;4.606;2024-03-08T17:40:05;22.30;;;15.00;;
61338;SDS011;47213;52.362;4.606;2024-03-08T17:50:05;23.20;;;15.40;;
61338;SDS011;47213;52.362;4.606;2024-03-08T18:10:06;22.70;;;15.60;;
61338;SDS011;47213;52.362;4.606;2024-03-08T18:20:06;23.10;;;15.70;;
61338;SDS011;47213;52.362;4.606;2024-03-08T18:30:06;25.00;;;16.70;;
61338;SDS011;47213;52.362;4.606;2024-03-08T18:40:06;26.40;;;18.20;;
61338;SDS011;47213;52.362;4.606;2024-03-08T18:50:07;28.00;;;19.10;;
61338;SDS011;47213;52.362;4.606;2024-03-08T19:00:07;30.20;;;19.50;;
61338;SDS011;47213;52.362;4.606;2024-03-08T19:10:06;27.60;;;19.60;;
61338;SDS011;47213;52.362;4.606;2024-03-08T19:20:06;31.10;;;21.40;;
61338;SDS011;47213;52.362;4.606;2024-03-08T19:30:08;34.20;;;22.40;;
61338;SDS011;47213;52.362;4.606;2024-03-08T19:40:08;33.40;;;22.70;;
61338;SDS011;47213;52.362;4.606;2024-03-08T19:50:06;32.40;;;22.80;;
61338;SDS011;47213;52.362;4.606;2024-03-08T20:00:09;31.90;;;21.90;;
61338;SDS011;47213;52.362;4.606;2024-03-08T20:10:07;33.30;;;21.80;;
61338;SDS011;47213;52.362;4.606;2024-03-08T20:20:07;30.20;;;19.80;;
61338;SDS011;47213;52.362;4.606;2024-03-08T20:30:06;31.00;;;20.30;;
61338;SDS011;47213;52.362;4.606;2024-03-08T20:40:06;32.50;;;19.60;;
61338;SDS011;47213;52.362;4.606;2024-03-08T20:50:06;29.50;;;19.40;;
61338;SDS011;47213;52.362;4.606;2024-03-08T21:00:07;30.10;;;20.00;;
61338;SDS011;47213;52.362;4.606;2024-03-08T21:10:06;32.40;;;20.10;;
61338;SDS011;47213;52.362;4.606;2024-03-08T21:20:06;31.10;;;20.00;;
61338;SDS011;47213;52.362;4.606;2024-03-08T21:30:06;32.10;;;19.40;;
61338;SDS011;47213;52.362;4.606;2024-03-08T21:40:06;31.40;;;19.60;;
61338;SDS011;47213;52.362;4.606;2024-03-08T21:50:06;30.60;;;19.40;;
61338;SDS011;47213;52.362;4.606;2024-03-08T22:00:06;33.70;;;20.30;;
61338;SDS011;47213;52.362;4.606;2024-03-08T22:10:06;30.40;;;19.00;;
61338;SDS011;47213;52.362;4.606;2024-03-08T22:20:06;31.40;;;18.80;;
61338;SDS011;47213;52.362;4.606;2024-03-08T22:30:06;32.80;;;19.60;;
61338;SDS011;47213;52.362;4.606;2024-03-08T22:40:06;35.00;;;20.90;;
61338;SDS011;47213;52.362;4.606;2024-03-08T22:50:05;31.60;;;19.10;;
61338;SDS011;47213;52.362;4.606;2024-03-08T23:00:07;32.70;;;19.90;;
61338;SDS011;47213;52.362;4.606;2024-03-08T23:10:05;33.10;;;18.70;;
61338;SDS011;47213;52.362;4.606;2024-03-08T23:20:05;35.70;;;19.50;;
61338;SDS011;47213;52.362;4.606;2024-03-08T23:30:05;35.70;;;20.10;;
61338;SDS011;47213;52.362;4.606;2024-03-08T23:40:04;32.20;;;18.90;;
61338;SDS011;47213;52.362;4.606;2024-03-08T23:50:04;35.40;;;20.60;;
